createdAt,value
2022-08-19T00:00:53.105Z,8.90
2022-08-19T00:03:22.714Z,8.50
2022-08-19T00:10:51.163Z,8.80
2022-08-19T00:13:21.491Z,9.60
2022-08-19T00:15:51.175Z,8.90
2022-08-19T00:18:21.842Z,8.60
2022-08-19T00:20:51.351Z,9.00
2022-08-19T00:23:20.791Z,10.30
2022-08-19T00:28:22.120Z,9.30
2022-08-19T00:30:54.088Z,10.70
2022-08-19T00:33:24.824Z,10.50
2022-08-19T00:35:56.116Z,9.50
2022-08-19T00:38:29.641Z,9.60
2022-08-19T00:41:08.430Z,9.40
2022-08-19T00:43:37.702Z,8.20
2022-08-19T00:46:07.198Z,9.70
2022-08-19T00:48:38.471Z,7.90
2022-08-19T00:51:07.931Z,8.90
2022-08-19T00:53:38.567Z,10.30
2022-08-19T00:56:10.793Z,8.30
2022-08-19T00:58:41.461Z,8.00
2022-08-19T01:01:12.476Z,9.20
2022-08-19T01:03:57.591Z,8.20
2022-08-19T01:06:28.730Z,8.00
2022-08-19T01:08:58.975Z,9.50
2022-08-19T01:11:36.392Z,9.60
2022-08-19T01:14:07.373Z,8.30
2022-08-19T01:16:40.781Z,7.70
2022-08-19T01:19:21.513Z,8.40
2022-08-19T01:22:13.972Z,8.60
2022-08-19T01:24:49.997Z,9.00
2022-08-19T01:27:22.640Z,9.50
2022-08-19T01:29:56.497Z,9.50
2022-08-19T01:32:33.502Z,7.80
2022-08-19T01:35:06.923Z,8.60
2022-08-19T01:37:59.831Z,7.70
2022-08-19T01:40:35.629Z,8.70
2022-08-19T01:43:08.099Z,8.00
2022-08-19T01:45:43.210Z,9.10
2022-08-19T01:48:16.220Z,9.30
2022-08-19T01:50:50.845Z,10.40
2022-08-19T01:53:21.496Z,9.10
2022-08-19T01:55:58.373Z,9.90
2022-08-19T01:58:44.303Z,10.50
2022-08-19T02:01:16.061Z,11.60
2022-08-19T02:03:48.429Z,10.40
2022-08-19T02:06:20.424Z,10.60
2022-08-19T02:09:00.682Z,11.30
2022-08-19T02:11:38.576Z,10.60
2022-08-19T02:14:09.920Z,9.70
2022-08-19T02:16:43.134Z,9.70
2022-08-19T02:19:14.089Z,9.50
2022-08-19T02:21:46.074Z,10.00
2022-08-19T02:24:18.827Z,9.10
2022-08-19T02:26:49.006Z,10.90
2022-08-19T02:29:19.086Z,10.40
2022-08-19T02:31:50.318Z,10.30
2022-08-19T02:34:22.296Z,9.80
2022-08-19T02:36:54.410Z,9.00
2022-08-19T02:39:25.435Z,10.60
2022-08-19T02:41:55.553Z,13.40
2022-08-19T02:47:02.439Z,9.30
2022-08-19T02:49:34.671Z,9.60
2022-08-19T02:52:05.979Z,11.10
2022-08-19T02:54:36.468Z,11.90
2022-08-19T02:57:07.791Z,11.00
2022-08-19T02:59:37.572Z,11.40
2022-08-19T03:02:07.943Z,10.20
2022-08-19T03:04:38.772Z,10.30
2022-08-19T03:07:11.191Z,11.30
2022-08-19T03:09:42.468Z,11.10
2022-08-19T03:12:13.626Z,9.30
2022-08-19T03:14:43.305Z,9.80
2022-08-19T03:17:12.998Z,10.50
2022-08-19T03:19:44.527Z,9.60
2022-08-19T03:22:14.522Z,9.40
2022-08-19T03:24:45.305Z,10.70
2022-08-19T03:27:15.533Z,9.10
2022-08-19T03:29:45.392Z,9.00
2022-08-19T03:35:03.750Z,11.20
2022-08-19T03:37:33.235Z,12.70
2022-08-19T03:40:04.482Z,11.60
2022-08-19T03:42:49.016Z,11.90
2022-08-19T03:45:20.017Z,10.30
2022-08-19T03:47:50.197Z,9.00
2022-08-19T03:50:21.010Z,11.70
2022-08-19T03:52:54.255Z,12.80
2022-08-19T03:55:24.270Z,13.10
2022-08-19T03:57:58.630Z,11.10
2022-08-19T04:00:28.118Z,10.90
2022-08-19T04:02:59.996Z,11.20
2022-08-19T04:05:31.131Z,10.30
2022-08-19T04:10:30.586Z,10.50
2022-08-19T04:12:59.934Z,11.20
2022-08-19T04:15:33.058Z,10.20
2022-08-19T04:18:02.333Z,10.40
2022-08-19T04:20:31.663Z,10.30
2022-08-19T04:23:00.748Z,9.50
2022-08-19T04:25:30.902Z,8.90
2022-08-19T04:30:28.550Z,8.80
2022-08-19T04:32:57.332Z,9.30
2022-08-19T04:35:26.527Z,8.60
2022-08-19T04:37:55.635Z,8.20
2022-08-19T04:40:43.163Z,9.10
2022-08-19T04:43:15.323Z,8.90
2022-08-19T04:45:48.106Z,8.00
2022-08-19T04:48:26.877Z,7.30
2022-08-19T04:50:59.083Z,6.30
2022-08-19T04:53:37.699Z,7.20
2022-08-19T04:56:13.899Z,6.80
2022-08-19T04:58:45.143Z,6.80
2022-08-19T05:01:18.799Z,6.80
2022-08-19T05:03:47.810Z,6.70
2022-08-19T05:06:20.525Z,7.30
2022-08-19T05:08:50.223Z,6.10
2022-08-19T05:13:56.716Z,7.20
2022-08-19T05:16:27.620Z,6.70
2022-08-19T05:19:15.564Z,7.90
2022-08-19T05:22:04.335Z,7.50
2022-08-19T05:24:35.567Z,7.90
2022-08-19T05:27:07.970Z,7.40
2022-08-19T05:29:37.477Z,7.30
2022-08-19T05:32:11.874Z,6.60
2022-08-19T05:34:41.085Z,6.80
2022-08-19T05:37:10.189Z,7.10
2022-08-19T05:39:41.945Z,6.60
2022-08-19T05:42:13.391Z,6.40
2022-08-19T05:44:45.353Z,7.20
2022-08-19T05:47:16.206Z,8.10
2022-08-19T05:49:44.830Z,6.80
2022-08-19T05:52:18.659Z,8.50
2022-08-19T05:54:51.219Z,7.20
2022-08-19T05:57:20.559Z,6.40
2022-08-19T05:59:53.269Z,7.60
2022-08-19T06:02:28.799Z,7.10
2022-08-19T06:04:57.443Z,7.10
2022-08-19T06:07:26.360Z,8.00
2022-08-19T06:12:34.757Z,6.70
2022-08-19T06:15:09.165Z,8.10
2022-08-19T06:17:38.125Z,6.80
2022-08-19T06:22:40.828Z,6.90
2022-08-19T06:25:10.831Z,7.20
2022-08-19T06:27:58.632Z,6.60
2022-08-19T06:30:31.919Z,6.50
2022-08-19T06:33:01.003Z,6.70
2022-08-19T06:35:30.791Z,6.40
2022-08-19T06:38:00.860Z,6.50
2022-08-19T06:40:30.216Z,5.90
2022-08-19T06:43:01.816Z,6.50
2022-08-19T06:45:34.885Z,6.30
2022-08-19T06:48:04.620Z,5.90
2022-08-19T06:50:33.318Z,6.90
2022-08-19T06:53:07.166Z,6.30
2022-08-19T06:55:36.598Z,6.20
2022-08-19T06:58:06.610Z,6.50
2022-08-19T07:00:35.659Z,7.20
2022-08-19T07:03:08.494Z,6.50
2022-08-19T07:05:45.719Z,6.50
2022-08-19T07:08:15.476Z,6.30
2022-08-19T07:10:46.926Z,7.30
2022-08-19T07:13:16.019Z,6.50
2022-08-19T07:15:45.561Z,6.90
2022-08-19T07:18:14.637Z,6.60
2022-08-19T07:23:16.656Z,7.20
2022-08-19T07:25:52.965Z,6.90
2022-08-19T07:28:24.680Z,7.00
2022-08-19T07:30:54.123Z,6.40
2022-08-19T07:33:24.379Z,6.10
2022-08-19T07:35:56.818Z,6.10
2022-08-19T07:40:55.619Z,7.30
2022-08-19T07:43:26.316Z,5.60
2022-08-19T07:46:04.439Z,6.10
2022-08-19T07:48:33.983Z,6.10
2022-08-19T07:51:06.447Z,6.30
2022-08-19T07:53:39.641Z,5.90
2022-08-19T07:56:09.151Z,6.50
2022-08-19T07:58:41.928Z,5.90
2022-08-19T08:01:16.669Z,6.10
2022-08-19T08:04:04.888Z,6.30
2022-08-19T08:06:53.971Z,6.70
2022-08-19T08:09:39.396Z,6.40
2022-08-19T08:12:30.816Z,5.50
2022-08-19T08:15:08.517Z,6.90
2022-08-19T08:17:49.109Z,6.10
2022-08-19T08:20:19.407Z,6.30
2022-08-19T08:23:08.408Z,7.00
2022-08-19T08:25:38.619Z,5.70
2022-08-19T08:28:08.843Z,6.10
2022-08-19T08:30:45.251Z,5.70
2022-08-19T08:35:47.514Z,5.00
2022-08-19T08:38:19.072Z,6.40
2022-08-19T08:40:57.869Z,5.80
2022-08-19T08:43:32.204Z,6.10
2022-08-19T08:46:04.501Z,6.10
2022-08-19T08:48:55.974Z,5.20
2022-08-19T08:51:35.172Z,5.80
2022-08-19T08:54:09.769Z,5.20
2022-08-19T08:56:44.459Z,5.20
2022-08-19T08:59:29.427Z,4.90
2022-08-19T09:01:58.119Z,6.20
2022-08-19T09:04:27.719Z,5.10
2022-08-19T09:07:26.242Z,5.70
2022-08-19T09:10:44.311Z,5.90
2022-08-19T09:13:37.485Z,5.20
2022-08-19T09:16:17.456Z,5.60
2022-08-19T09:18:55.770Z,5.70
2022-08-19T09:21:33.176Z,4.60
2022-08-19T09:24:05.803Z,5.20
2022-08-19T09:26:52.313Z,4.80
2022-08-19T09:29:23.690Z,5.60
2022-08-19T09:31:52.377Z,5.10
2022-08-19T09:34:22.202Z,4.60
2022-08-19T09:36:54.882Z,6.00
2022-08-19T09:39:24.064Z,5.30
2022-08-19T09:41:54.109Z,4.80
2022-08-19T09:44:22.675Z,4.30
2022-08-19T09:46:52.267Z,5.80
2022-08-19T09:49:25.049Z,5.60
2022-08-19T09:51:57.526Z,4.30
2022-08-19T09:54:27.133Z,4.50
2022-08-19T09:56:59.059Z,4.80
2022-08-19T09:59:29.111Z,4.40
2022-08-19T10:02:03.817Z,6.10
2022-08-19T10:04:58.126Z,4.30
2022-08-19T10:07:29.028Z,4.50
2022-08-19T10:10:10.567Z,5.60
2022-08-19T10:12:39.439Z,4.30
2022-08-19T10:15:09.226Z,5.00
2022-08-19T10:17:38.665Z,4.90
2022-08-19T10:20:08.426Z,4.90
2022-08-19T10:22:38.791Z,4.20
2022-08-19T10:25:08.176Z,4.50
2022-08-19T10:27:36.985Z,4.20
2022-08-19T10:30:11.222Z,3.90
2022-08-19T10:32:40.105Z,4.30
2022-08-19T10:35:16.202Z,4.50
2022-08-19T10:37:57.468Z,4.40
2022-08-19T10:40:33.140Z,4.70
2022-08-19T10:43:01.771Z,4.70
2022-08-19T10:45:30.457Z,5.20
2022-08-19T10:47:59.398Z,4.90
2022-08-19T10:50:47.068Z,4.40
2022-08-19T10:56:04.714Z,4.20
2022-08-19T10:58:33.705Z,4.00
2022-08-19T11:01:02.781Z,4.30
2022-08-19T11:03:31.999Z,3.80
2022-08-19T11:06:07.383Z,4.50
2022-08-19T11:08:38.874Z,4.50
2022-08-19T11:11:09.879Z,4.20
2022-08-19T11:13:41.383Z,4.00
2022-08-19T11:16:15.291Z,4.40
2022-08-19T11:18:47.235Z,4.80
2022-08-19T11:21:21.790Z,4.50
2022-08-19T11:23:53.125Z,4.00
2022-08-19T11:26:22.938Z,4.20
2022-08-19T11:28:54.700Z,3.90
2022-08-19T11:31:29.162Z,4.60
2022-08-19T11:34:04.405Z,4.40
2022-08-19T11:36:34.537Z,4.80
2022-08-19T11:39:04.889Z,4.80
2022-08-19T11:41:33.480Z,4.30
2022-08-19T11:44:04.114Z,5.10
2022-08-19T11:46:32.901Z,4.30
2022-08-19T11:49:02.807Z,4.10
2022-08-19T11:51:31.498Z,4.40
2022-08-19T11:54:01.340Z,4.50
2022-08-19T11:56:30.202Z,3.90
2022-08-19T11:59:01.521Z,4.00
2022-08-19T12:01:30.649Z,4.50
2022-08-19T12:04:00.397Z,4.40
2022-08-19T12:06:33.068Z,3.90
2022-08-19T12:09:06.840Z,4.00
2022-08-19T12:11:41.365Z,4.60
2022-08-19T12:14:15.473Z,4.70
2022-08-19T12:16:50.939Z,3.90
2022-08-19T12:19:22.653Z,4.50
2022-08-19T12:21:52.487Z,4.10
2022-08-19T12:24:24.518Z,3.40
2022-08-19T12:26:54.680Z,4.00
2022-08-19T12:29:29.710Z,4.30
2022-08-19T12:32:03.872Z,4.10
2022-08-19T12:34:34.450Z,3.80
2022-08-19T12:37:05.788Z,3.40
2022-08-19T12:39:45.403Z,3.40
2022-08-19T12:42:16.400Z,4.20
2022-08-19T12:44:46.293Z,4.10
2022-08-19T12:47:15.700Z,3.70
2022-08-19T12:49:53.921Z,4.00
2022-08-19T12:52:27.113Z,4.70
2022-08-19T12:54:58.111Z,3.60
2022-08-19T12:57:32.146Z,3.50
2022-08-19T13:00:12.709Z,3.80
2022-08-19T13:02:45.910Z,3.90
2022-08-19T13:05:18.482Z,3.60
2022-08-19T13:07:47.374Z,4.10
2022-08-19T13:10:19.212Z,3.80
2022-08-19T13:12:50.388Z,3.60
2022-08-19T13:15:23.742Z,4.10
2022-08-19T13:17:55.059Z,3.80
2022-08-19T13:20:24.388Z,3.50
2022-08-19T13:22:53.219Z,4.30
2022-08-19T13:25:22.614Z,4.20
2022-08-19T13:27:53.208Z,4.30
2022-08-19T13:30:40.457Z,4.20
2022-08-19T13:33:16.242Z,4.00
2022-08-19T13:35:51.681Z,4.00
2022-08-19T13:38:22.738Z,3.80
2022-08-19T13:40:53.836Z,3.90
2022-08-19T13:43:26.928Z,4.40
2022-08-19T13:45:59.501Z,3.90
2022-08-19T13:48:28.240Z,3.90
2022-08-19T13:50:57.488Z,4.10
2022-08-19T13:53:26.174Z,4.20
2022-08-19T13:55:55.377Z,4.50
2022-08-19T13:58:24.369Z,4.70
2022-08-19T14:03:22.554Z,3.50
2022-08-19T14:08:20.234Z,5.00
2022-08-19T14:10:49.845Z,5.00
2022-08-19T14:13:21.611Z,4.50
2022-08-19T14:15:51.824Z,4.40
2022-08-19T14:18:20.612Z,4.90
2022-08-19T14:20:49.202Z,4.20
2022-08-19T14:28:18.016Z,4.20
2022-08-19T14:30:50.181Z,4.50
2022-08-19T14:33:24.094Z,4.30
2022-08-19T14:35:59.649Z,5.00
2022-08-19T14:38:33.092Z,4.70
2022-08-19T14:41:23.529Z,4.60
2022-08-19T14:43:54.208Z,4.70
2022-08-19T14:46:28.092Z,4.50
2022-08-19T14:48:59.833Z,4.60
2022-08-19T14:51:29.228Z,7.80
2022-08-19T14:53:58.123Z,7.00
2022-08-19T14:56:30.089Z,5.80
2022-08-19T14:59:02.251Z,6.50
2022-08-19T15:01:31.095Z,5.50
2022-08-19T15:03:59.831Z,4.60
2022-08-19T15:06:29.437Z,4.60
2022-08-19T15:09:02.041Z,4.40
2022-08-19T15:11:34.857Z,5.20
2022-08-19T15:14:04.195Z,4.50
2022-08-19T15:16:34.253Z,4.50
2022-08-19T15:19:02.898Z,4.10
2022-08-19T15:21:31.965Z,4.60
2022-08-19T15:24:02.130Z,4.30
2022-08-19T15:26:33.555Z,4.50
2022-08-19T15:29:05.988Z,4.30
2022-08-19T15:31:38.186Z,4.20
2022-08-19T15:34:07.993Z,3.90
2022-08-19T15:36:38.237Z,4.60
2022-08-19T15:39:07.649Z,4.90
2022-08-19T15:41:37.236Z,3.90
2022-08-19T15:44:11.623Z,4.20
2022-08-19T15:46:43.427Z,4.50
2022-08-19T15:49:14.383Z,4.20
2022-08-19T15:51:45.759Z,4.50
2022-08-19T15:54:19.348Z,4.60
2022-08-19T15:57:08.575Z,4.60
2022-08-19T16:00:01.540Z,5.00
2022-08-19T16:02:53.761Z,4.50
2022-08-19T16:05:45.096Z,5.00
2022-08-19T16:08:15.821Z,4.60
2022-08-19T16:10:44.719Z,5.20
2022-08-19T16:13:13.609Z,5.10
2022-08-19T16:15:43.629Z,5.10
2022-08-19T16:18:12.310Z,6.00
2022-08-19T16:20:41.397Z,5.30
2022-08-19T16:23:11.519Z,4.80
2022-08-19T16:25:40.516Z,5.20
2022-08-19T16:28:11.027Z,4.50
2022-08-19T16:30:41.034Z,5.00
2022-08-19T16:33:10.879Z,5.30
2022-08-19T16:35:40.082Z,4.70
2022-08-19T16:38:08.956Z,5.20
2022-08-19T16:40:37.652Z,5.10
2022-08-19T16:45:35.635Z,5.20
2022-08-19T16:48:04.894Z,5.30
2022-08-19T16:50:48.768Z,5.60
2022-08-19T16:53:21.831Z,4.90
2022-08-19T16:55:51.175Z,5.50
2022-08-19T16:58:22.360Z,5.40
2022-08-19T17:01:03.719Z,5.50
2022-08-19T17:03:36.352Z,4.90
2022-08-19T17:06:20.856Z,5.10
2022-08-19T17:08:51.724Z,4.50
2022-08-19T17:11:21.975Z,4.60
2022-08-19T17:13:52.000Z,4.60
2022-08-19T17:16:24.824Z,5.40
2022-08-19T17:18:56.171Z,5.00
2022-08-19T17:21:28.458Z,5.30
2022-08-19T17:23:58.927Z,5.40
2022-08-19T17:26:29.605Z,5.00
2022-08-19T17:28:59.925Z,4.80
2022-08-19T17:31:31.542Z,5.50
2022-08-19T17:34:01.034Z,4.80
2022-08-19T17:36:34.418Z,5.40
2022-08-19T17:39:05.326Z,5.60
2022-08-19T17:41:34.740Z,5.60
2022-08-19T17:44:04.742Z,5.80
2022-08-19T17:46:34.281Z,5.80
2022-08-19T17:49:03.041Z,5.70
2022-08-19T17:51:35.971Z,6.30
2022-08-19T17:54:05.891Z,6.00
2022-08-19T17:56:34.769Z,6.20
2022-08-19T17:59:03.457Z,7.30
2022-08-19T18:01:52.107Z,6.30
2022-08-19T18:06:55.645Z,6.20
2022-08-19T18:09:42.254Z,6.10
2022-08-19T18:12:14.247Z,6.60
2022-08-19T18:14:43.089Z,5.90
2022-08-19T18:17:15.537Z,6.20
2022-08-19T18:19:45.267Z,6.00
2022-08-19T18:22:37.518Z,5.90
2022-08-19T18:25:11.839Z,5.40
2022-08-19T18:27:43.534Z,5.90
2022-08-19T18:30:13.091Z,6.30
2022-08-19T18:32:42.683Z,6.70
2022-08-19T18:35:18.366Z,6.30
2022-08-19T18:37:47.435Z,6.50
2022-08-19T18:40:38.653Z,7.00
2022-08-19T18:43:26.186Z,7.60
2022-08-19T18:46:13.778Z,7.60
2022-08-19T18:49:02.461Z,7.90
2022-08-19T18:51:32.448Z,8.00
2022-08-19T18:54:01.878Z,8.20
2022-08-19T18:59:03.973Z,6.70
2022-08-19T19:01:37.087Z,7.20
2022-08-19T19:04:11.674Z,7.50
2022-08-19T19:06:41.701Z,7.20
2022-08-19T19:09:19.894Z,6.90
2022-08-19T19:11:52.172Z,7.20
2022-08-19T19:14:48.587Z,7.70
2022-08-19T19:17:19.034Z,7.80
2022-08-19T19:19:48.031Z,8.60
2022-08-19T19:22:23.170Z,7.30
2022-08-19T19:24:54.513Z,7.50
2022-08-19T19:27:23.613Z,7.80
2022-08-19T19:32:28.886Z,6.70
2022-08-19T19:34:57.871Z,7.10
2022-08-19T19:37:26.642Z,6.80
2022-08-19T19:39:55.255Z,7.30
2022-08-19T19:42:24.625Z,7.40
2022-08-19T19:47:25.946Z,7.10
2022-08-19T19:50:14.706Z,7.30
2022-08-19T19:52:46.509Z,7.80
2022-08-19T19:55:18.609Z,8.30
2022-08-19T19:57:49.302Z,9.20
2022-08-19T20:00:19.265Z,8.00
2022-08-19T20:02:50.823Z,8.60
2022-08-19T20:05:21.871Z,8.60
2022-08-19T20:08:13.237Z,9.70
2022-08-19T20:10:44.066Z,8.20
2022-08-19T20:13:15.829Z,8.70
2022-08-19T20:15:44.920Z,7.30
2022-08-19T20:18:16.779Z,8.30
2022-08-19T20:20:46.900Z,8.70
2022-08-19T20:23:15.683Z,7.60
2022-08-19T20:25:44.485Z,8.20
2022-08-19T20:28:13.384Z,8.50
2022-08-19T20:30:46.347Z,8.80
2022-08-19T20:33:15.654Z,8.50
2022-08-19T20:35:45.526Z,7.50
2022-08-19T20:38:14.357Z,7.50
2022-08-19T20:40:43.045Z,7.60
2022-08-19T20:43:13.801Z,6.70
2022-08-19T20:45:42.970Z,7.30
2022-08-19T20:48:12.780Z,7.40
2022-08-19T20:50:41.878Z,7.20
2022-08-19T20:53:13.432Z,7.80
2022-08-19T20:55:47.504Z,9.00
2022-08-19T20:58:21.530Z,8.60
2022-08-19T21:00:52.637Z,8.10
2022-08-19T21:03:24.151Z,8.10
2022-08-19T21:05:53.249Z,7.80
2022-08-19T21:08:23.405Z,8.10
2022-08-19T21:10:53.764Z,7.50
2022-08-19T21:13:23.298Z,7.50
2022-08-19T21:15:52.687Z,6.90
2022-08-19T21:18:23.330Z,7.30
2022-08-19T21:20:52.320Z,7.00
2022-08-19T21:23:25.140Z,7.40
2022-08-19T21:25:56.836Z,7.90
2022-08-19T21:28:34.389Z,7.30
2022-08-19T21:31:10.646Z,8.50
2022-08-19T21:33:39.608Z,7.80
2022-08-19T21:36:09.224Z,8.40
2022-08-19T21:41:07.455Z,8.40
2022-08-19T21:43:38.036Z,8.50
2022-08-19T21:46:08.159Z,7.80
2022-08-19T21:48:37.261Z,8.00
2022-08-19T21:51:06.553Z,7.70
2022-08-19T21:53:36.070Z,8.10
2022-08-19T21:56:06.863Z,8.30
2022-08-19T21:58:39.579Z,7.10
2022-08-19T22:01:08.906Z,7.20
2022-08-19T22:03:38.943Z,7.90
2022-08-19T22:06:08.769Z,6.80
2022-08-19T22:08:37.553Z,7.20
2022-08-19T22:11:06.484Z,7.40
2022-08-19T22:13:40.264Z,8.10
2022-08-19T22:16:10.610Z,8.20
2022-08-19T22:18:40.319Z,7.50
2022-08-19T22:21:11.930Z,7.10
2022-08-19T22:23:42.697Z,8.40
2022-08-19T22:26:13.453Z,8.50
2022-08-19T22:28:43.035Z,9.00
2022-08-19T22:31:13.089Z,8.60
2022-08-19T22:36:11.361Z,8.50
2022-08-19T22:38:40.713Z,8.40
2022-08-19T22:43:38.854Z,9.70
2022-08-19T22:46:16.824Z,9.00
2022-08-19T22:48:48.332Z,9.20
2022-08-19T22:51:43.922Z,8.50
2022-08-19T22:54:12.609Z,8.30
2022-08-19T22:56:41.403Z,7.30
2022-08-19T22:59:11.730Z,8.30
2022-08-19T23:01:43.473Z,8.10
2022-08-19T23:04:13.310Z,9.40
2022-08-19T23:06:42.498Z,9.00
2022-08-19T23:09:16.957Z,9.30
2022-08-19T23:11:47.761Z,8.90
2022-08-19T23:14:18.312Z,8.60
2022-08-19T23:16:51.067Z,8.10
2022-08-19T23:19:21.928Z,8.40
2022-08-19T23:21:51.110Z,8.70
2022-08-19T23:24:20.801Z,9.10
2022-08-19T23:29:56.442Z,9.70
2022-08-19T23:32:25.879Z,8.80
2022-08-19T23:34:56.986Z,9.00
2022-08-19T23:37:26.791Z,8.30
2022-08-19T23:39:56.083Z,8.60
2022-08-19T23:42:26.980Z,9.50
2022-08-19T23:45:07.222Z,9.30
2022-08-19T23:47:36.666Z,10.90
2022-08-19T23:50:12.079Z,9.10
2022-08-19T23:52:55.980Z,10.00
2022-08-19T23:55:30.604Z,9.20
2022-08-19T23:58:01.421Z,9.70
